createdAt,value
2017-12-15T00:00:56.398Z,48.20
2017-12-15T00:03:24.227Z,48.30
2017-12-15T00:05:52.741Z,48.20
2017-12-15T00:08:20.562Z,48.20
2017-12-15T00:10:48.373Z,48.20
2017-12-15T00:13:16.128Z,48.50
2017-12-15T00:15:44.010Z,42.70
2017-12-15T00:18:11.769Z,49.50
2017-12-15T00:20:39.587Z,49.10
2017-12-15T00:23:07.403Z,49.10
2017-12-15T00:25:35.155Z,48.90
2017-12-15T00:28:02.894Z,48.90
2017-12-15T00:30:30.662Z,49.20
2017-12-15T00:32:58.462Z,49.40
2017-12-15T00:35:26.255Z,42.20
2017-12-15T00:37:54.094Z,50.20
2017-12-15T00:40:21.919Z,49.50
2017-12-15T00:42:49.711Z,49.60
2017-12-15T00:45:18.322Z,49.20
2017-12-15T00:47:46.110Z,49.10
2017-12-15T00:50:13.905Z,48.70
2017-12-15T00:52:41.851Z,44.50
2017-12-15T00:55:09.622Z,48.80
2017-12-15T00:57:37.347Z,49.10
2017-12-15T01:00:05.217Z,49.10
2017-12-15T01:02:32.966Z,49.00
2017-12-15T01:05:00.788Z,49.00
2017-12-15T01:07:28.616Z,49.20
2017-12-15T01:09:57.198Z,49.40
2017-12-15T01:12:25.004Z,49.30
2017-12-15T01:14:52.831Z,49.30
2017-12-15T01:17:21.426Z,49.00
2017-12-15T01:19:49.224Z,49.00
2017-12-15T01:22:16.984Z,49.10
2017-12-15T01:24:44.793Z,49.10
2017-12-15T01:27:12.552Z,49.10
2017-12-15T01:29:40.301Z,47.60
2017-12-15T01:32:08.086Z,47.40
2017-12-15T01:34:35.914Z,50.70
2017-12-15T01:37:03.757Z,51.30
2017-12-15T01:39:31.521Z,50.70
2017-12-15T01:42:00.057Z,50.20
2017-12-15T01:44:27.924Z,50.20
2017-12-15T01:46:55.678Z,49.80
2017-12-15T01:49:23.547Z,46.60
2017-12-15T01:51:51.365Z,49.80
2017-12-15T01:54:19.165Z,50.20
2017-12-15T01:56:47.011Z,50.40
2017-12-15T01:59:15.591Z,49.70
2017-12-15T02:01:43.396Z,49.80
2017-12-15T02:04:11.197Z,49.80
2017-12-15T02:06:38.964Z,49.60
2017-12-15T02:09:06.704Z,49.60
2017-12-15T02:11:34.508Z,49.50
2017-12-15T02:14:02.328Z,49.00
2017-12-15T02:16:30.067Z,49.70
2017-12-15T02:18:58.618Z,49.80
2017-12-15T02:21:26.546Z,49.70
2017-12-15T02:23:54.290Z,49.70
2017-12-15T02:26:22.838Z,50.00
2017-12-15T02:28:50.632Z,50.00
2017-12-15T02:31:18.372Z,41.10
2017-12-15T02:33:46.948Z,49.40
2017-12-15T02:36:14.835Z,49.40
2017-12-15T02:38:42.630Z,52.00
2017-12-15T02:41:10.443Z,47.90
2017-12-15T02:43:38.193Z,51.50
2017-12-15T02:46:05.938Z,50.70
2017-12-15T02:48:33.726Z,51.20
2017-12-15T02:51:01.612Z,51.10
2017-12-15T02:53:29.398Z,50.80
2017-12-15T02:55:57.227Z,50.80
2017-12-15T02:58:24.980Z,50.70
2017-12-15T03:00:53.470Z,50.90
2017-12-15T03:03:21.360Z,50.90
2017-12-15T03:05:49.127Z,51.00
2017-12-15T03:08:16.859Z,51.10
2017-12-15T03:10:45.495Z,51.10
2017-12-15T03:13:13.316Z,51.00
2017-12-15T03:15:41.930Z,51.70
2017-12-15T03:18:09.702Z,51.70
2017-12-15T03:20:37.537Z,52.80
2017-12-15T03:23:06.126Z,52.80
2017-12-15T03:25:33.978Z,52.70
2017-12-15T03:28:01.753Z,51.90
2017-12-15T03:30:30.244Z,51.10
2017-12-15T03:32:58.055Z,51.10
2017-12-15T03:35:25.803Z,51.50
2017-12-15T03:37:53.604Z,51.40
2017-12-15T03:40:21.423Z,51.50
2017-12-15T03:42:50.176Z,48.90
2017-12-15T03:45:17.926Z,51.20
2017-12-15T03:47:45.746Z,51.20
2017-12-15T03:50:13.586Z,51.10
2017-12-15T03:52:41.388Z,51.20
2017-12-15T03:55:09.130Z,51.20
2017-12-15T03:57:36.931Z,51.20
2017-12-15T04:00:04.739Z,51.20
2017-12-15T04:02:32.532Z,51.30
2017-12-15T04:05:01.115Z,51.20
2017-12-15T04:07:28.862Z,51.10
2017-12-15T04:09:56.710Z,51.30
2017-12-15T04:12:24.486Z,51.40
2017-12-15T04:14:52.338Z,46.60
2017-12-15T04:17:20.163Z,52.20
2017-12-15T04:19:47.919Z,52.20
2017-12-15T04:22:15.851Z,40.70
2017-12-15T04:24:43.608Z,52.90
2017-12-15T04:27:11.400Z,42.90
2017-12-15T04:29:39.289Z,52.70
2017-12-15T04:32:07.158Z,52.50
2017-12-15T04:34:34.984Z,52.10
2017-12-15T04:37:02.882Z,52.00
2017-12-15T04:39:30.705Z,46.30
2017-12-15T04:41:58.492Z,52.30
2017-12-15T04:44:26.411Z,52.10
2017-12-15T04:46:54.950Z,52.40
2017-12-15T04:49:22.720Z,52.40
2017-12-15T04:51:50.485Z,47.60
2017-12-15T04:54:18.301Z,53.10
2017-12-15T04:56:46.050Z,52.30
2017-12-15T04:59:13.816Z,51.80
2017-12-15T05:01:41.643Z,51.30
2017-12-15T05:04:09.402Z,50.90
2017-12-15T05:06:37.164Z,50.80
2017-12-15T05:09:05.052Z,50.30
2017-12-15T05:11:32.858Z,50.30
2017-12-15T05:14:00.607Z,50.10
2017-12-15T05:16:28.440Z,49.80
2017-12-15T05:18:56.237Z,49.50
2017-12-15T05:21:24.002Z,49.30
2017-12-15T05:23:51.724Z,49.10
2017-12-15T05:26:19.548Z,49.00
2017-12-15T05:28:47.516Z,48.50
2017-12-15T05:31:17.155Z,48.70
2017-12-15T05:33:45.445Z,48.60
2017-12-15T05:36:13.252Z,47.90
2017-12-15T05:38:41.100Z,49.00
2017-12-15T05:41:09.106Z,49.20
2017-12-15T05:43:37.171Z,49.50
2017-12-15T05:46:06.297Z,39.20
2017-12-15T05:48:35.136Z,47.90
2017-12-15T05:51:03.884Z,48.00
2017-12-15T05:53:31.916Z,48.00
2017-12-15T05:55:59.733Z,49.20
2017-12-15T05:58:28.326Z,48.40
2017-12-15T06:00:56.133Z,48.40
2017-12-15T06:03:25.985Z,43.60
2017-12-15T06:05:53.963Z,47.70
2017-12-15T06:08:21.740Z,45.10
2017-12-15T06:10:49.545Z,48.50
2017-12-15T06:13:17.326Z,43.00
2017-12-15T06:15:45.287Z,50.80
2017-12-15T06:18:13.117Z,52.50
2017-12-15T06:20:41.794Z,53.10
2017-12-15T06:23:10.884Z,44.10
2017-12-15T06:25:38.831Z,43.80
2017-12-15T06:28:06.658Z,47.40
2017-12-15T06:30:34.487Z,38.10
2017-12-15T06:33:02.382Z,49.60
2017-12-15T06:35:30.214Z,48.90
2017-12-15T06:37:58.057Z,46.80
2017-12-15T06:40:25.939Z,48.70
2017-12-15T06:42:53.826Z,47.90
2017-12-15T06:45:22.543Z,46.60
2017-12-15T06:47:51.164Z,45.80
2017-12-15T06:50:18.928Z,45.80
2017-12-15T06:52:46.694Z,44.20
2017-12-15T06:55:14.476Z,45.50
2017-12-15T06:57:42.307Z,45.50
2017-12-15T07:00:10.178Z,43.10
2017-12-15T07:02:37.949Z,45.20
2017-12-15T07:05:05.769Z,45.20
2017-12-15T07:07:33.590Z,44.40
2017-12-15T07:10:01.338Z,44.50
2017-12-15T07:12:29.066Z,44.60
2017-12-15T07:14:56.817Z,33.50
2017-12-15T07:17:24.625Z,42.10
2017-12-15T07:19:52.393Z,45.50
2017-12-15T07:22:20.170Z,45.00
2017-12-15T07:24:48.018Z,44.40
2017-12-15T07:27:16.620Z,43.90
2017-12-15T07:29:44.372Z,43.80
2017-12-15T07:32:12.146Z,43.70
2017-12-15T07:34:39.972Z,43.60
2017-12-15T07:37:07.814Z,43.30
2017-12-15T07:39:35.616Z,43.70
2017-12-15T07:42:03.365Z,43.40
2017-12-15T07:44:31.226Z,42.90
2017-12-15T07:46:59.088Z,39.70
2017-12-15T07:49:27.900Z,42.80
2017-12-15T07:51:55.762Z,35.80
2017-12-15T07:54:23.641Z,44.00
2017-12-15T07:56:51.409Z,37.00
2017-12-15T07:59:19.273Z,43.10
2017-12-15T08:01:47.094Z,35.30
2017-12-15T08:04:14.893Z,35.10
2017-12-15T08:06:42.716Z,37.60
2017-12-15T08:09:10.506Z,43.40
2017-12-15T08:11:38.354Z,46.20
2017-12-15T08:14:06.943Z,43.10
2017-12-15T08:16:35.491Z,42.60
2017-12-15T08:19:03.368Z,42.60
2017-12-15T08:21:31.200Z,42.60
2017-12-15T08:23:59.240Z,42.30
2017-12-15T08:26:27.858Z,36.40
2017-12-15T08:28:55.711Z,36.20
2017-12-15T08:31:23.570Z,36.90
2017-12-15T08:33:51.334Z,40.80
2017-12-15T08:36:19.150Z,38.80
2017-12-15T08:38:46.934Z,39.90
2017-12-15T08:41:14.687Z,41.00
2017-12-15T08:43:42.541Z,32.20
2017-12-15T08:46:10.379Z,42.90
2017-12-15T08:48:39.037Z,34.40
2017-12-15T08:51:06.926Z,34.30
2017-12-15T08:53:34.718Z,39.50
2017-12-15T08:56:02.721Z,48.90
2017-12-15T08:58:30.511Z,39.20
2017-12-15T09:00:58.388Z,39.00
2017-12-15T09:03:26.213Z,46.00
2017-12-15T09:05:54.045Z,38.80
2017-12-15T09:08:22.591Z,42.00
2017-12-15T09:10:50.507Z,42.00
2017-12-15T09:13:18.305Z,41.90
2017-12-15T09:15:46.090Z,48.20
2017-12-15T09:18:13.977Z,43.10
2017-12-15T09:20:41.819Z,44.40
2017-12-15T09:23:09.660Z,42.10
2017-12-15T09:25:37.593Z,42.40
2017-12-15T09:28:05.359Z,48.90
2017-12-15T09:30:33.950Z,48.60
2017-12-15T09:33:01.855Z,48.70
2017-12-15T09:35:29.707Z,42.00
2017-12-15T09:37:57.461Z,45.40
2017-12-15T09:40:26.014Z,52.70
2017-12-15T09:42:53.774Z,52.70
2017-12-15T09:45:22.392Z,50.20
2017-12-15T09:47:50.903Z,51.80
2017-12-15T09:50:18.678Z,51.70
2017-12-15T09:52:46.535Z,43.10
2017-12-15T09:55:14.357Z,47.40
2017-12-15T09:57:42.119Z,45.40
2017-12-15T10:00:09.982Z,47.70
2017-12-15T10:02:37.828Z,47.30
2017-12-15T10:05:05.660Z,51.10
2017-12-15T10:07:34.381Z,54.80
2017-12-15T10:10:02.134Z,54.70
2017-12-15T10:12:29.906Z,46.90
2017-12-15T10:14:57.692Z,53.40
2017-12-15T10:17:25.456Z,45.30
2017-12-15T10:19:53.255Z,46.30
2017-12-15T10:22:21.024Z,43.30
2017-12-15T10:24:48.783Z,50.20
2017-12-15T10:27:16.596Z,42.90
2017-12-15T10:29:44.374Z,50.60
2017-12-15T10:32:12.176Z,50.80
2017-12-15T10:34:40.020Z,42.50
2017-12-15T10:37:07.906Z,50.40
2017-12-15T10:39:35.747Z,49.50
2017-12-15T10:42:03.566Z,49.30
2017-12-15T10:44:31.303Z,40.70
2017-12-15T10:46:59.126Z,44.20
2017-12-15T10:49:26.934Z,47.80
2017-12-15T10:51:54.800Z,40.40
2017-12-15T10:54:22.599Z,49.70
2017-12-15T10:56:50.372Z,48.50
2017-12-15T10:59:18.295Z,43.90
2017-12-15T11:01:46.141Z,49.60
2017-12-15T11:04:14.655Z,49.00
2017-12-15T11:06:42.556Z,48.90
2017-12-15T11:09:10.322Z,41.30
2017-12-15T11:11:38.086Z,42.80
2017-12-15T11:14:05.865Z,41.50
2017-12-15T11:16:33.638Z,45.70
2017-12-15T11:19:01.420Z,51.70
2017-12-15T11:21:30.018Z,47.30
2017-12-15T11:23:57.809Z,47.40
2017-12-15T11:26:25.561Z,45.70
2017-12-15T11:28:53.341Z,48.50
2017-12-15T11:31:21.192Z,51.80
2017-12-15T11:33:48.984Z,48.40
2017-12-15T11:36:16.906Z,53.90
2017-12-15T11:38:44.750Z,52.10
2017-12-15T11:41:12.566Z,45.50
2017-12-15T11:43:40.342Z,44.30
2017-12-15T11:46:08.169Z,45.80
2017-12-15T11:48:35.940Z,44.80
2017-12-15T11:51:03.727Z,45.80
2017-12-15T11:53:31.496Z,46.30
2017-12-15T11:55:59.241Z,49.00
2017-12-15T11:58:27.081Z,50.60
2017-12-15T12:00:54.935Z,48.60
2017-12-15T12:03:22.680Z,46.10
2017-12-15T12:05:50.528Z,51.30
2017-12-15T12:08:18.375Z,43.30
2017-12-15T12:10:46.235Z,42.40
2017-12-15T12:13:14.223Z,42.60
2017-12-15T12:15:41.985Z,43.70
2017-12-15T12:18:09.807Z,52.00
2017-12-15T12:20:38.582Z,44.00
2017-12-15T12:23:06.426Z,51.30
2017-12-15T12:25:35.005Z,41.90
2017-12-15T12:28:03.088Z,41.80
2017-12-15T12:30:30.960Z,41.80
2017-12-15T12:32:58.939Z,49.10
2017-12-15T12:35:27.008Z,49.10
2017-12-15T12:37:54.867Z,48.90
2017-12-15T12:40:22.740Z,45.10
2017-12-15T12:42:50.598Z,43.70
2017-12-15T12:45:18.478Z,45.50
2017-12-15T12:47:46.397Z,49.50
2017-12-15T12:50:14.459Z,40.50
2017-12-15T12:52:42.487Z,42.20
2017-12-15T12:55:10.452Z,45.10
2017-12-15T12:57:38.313Z,44.70
2017-12-15T13:00:08.028Z,42.30
2017-12-15T13:02:35.885Z,42.30
2017-12-15T13:05:03.864Z,43.10
2017-12-15T13:07:32.540Z,48.50
2017-12-15T13:10:00.407Z,48.30
2017-12-15T13:12:30.443Z,47.40
2017-12-15T13:14:58.503Z,47.20
2017-12-15T13:17:26.572Z,42.30
2017-12-15T13:19:54.483Z,45.80
2017-12-15T13:22:22.409Z,51.50
2017-12-15T13:24:52.882Z,42.30
2017-12-15T13:27:20.898Z,45.00
2017-12-15T13:29:48.763Z,42.50
2017-12-15T13:32:16.735Z,40.60
2017-12-15T13:34:44.804Z,39.60
2017-12-15T13:37:12.774Z,44.90
2017-12-15T13:39:40.964Z,45.10
2017-12-15T13:42:09.837Z,50.10
2017-12-15T13:44:39.563Z,50.00
2017-12-15T13:47:08.120Z,41.90
2017-12-15T13:49:36.096Z,38.20
2017-12-15T13:52:05.934Z,42.80
2017-12-15T13:54:36.037Z,44.30
2017-12-15T13:57:06.959Z,43.10
2017-12-15T13:59:35.561Z,42.90
2017-12-15T14:02:03.418Z,43.40
2017-12-15T14:04:33.001Z,45.40
2017-12-15T14:07:01.307Z,44.60
2017-12-15T14:09:31.541Z,46.80
2017-12-15T14:12:00.308Z,40.00
2017-12-15T14:14:28.715Z,39.80
2017-12-15T14:16:58.195Z,40.50
2017-12-15T14:19:26.969Z,40.30
2017-12-15T14:21:55.048Z,48.00
2017-12-15T14:24:24.937Z,36.60
2017-12-15T14:26:53.651Z,42.50
2017-12-15T14:29:23.255Z,42.40
2017-12-15T14:31:52.058Z,40.40
2017-12-15T14:34:20.092Z,40.30
2017-12-15T14:36:47.951Z,43.50
2017-12-15T14:39:17.173Z,40.40
2017-12-15T14:41:45.151Z,44.00
2017-12-15T14:44:13.127Z,47.10
2017-12-15T14:46:42.127Z,40.70
2017-12-15T14:49:10.898Z,46.90
2017-12-15T14:51:38.767Z,46.80
2017-12-15T14:54:06.634Z,47.90
2017-12-15T14:56:34.702Z,47.30
2017-12-15T14:59:02.786Z,43.40
2017-12-15T15:01:30.754Z,42.00
2017-12-15T15:03:59.124Z,48.70
2017-12-15T15:06:27.596Z,47.00
2017-12-15T15:08:55.578Z,39.70
2017-12-15T15:11:24.362Z,41.00
2017-12-15T15:13:53.147Z,46.40
2017-12-15T15:16:21.226Z,46.40
2017-12-15T15:18:49.094Z,42.20
2017-12-15T15:21:16.953Z,35.60
2017-12-15T15:23:44.932Z,43.20
2017-12-15T15:26:12.787Z,45.40
2017-12-15T15:28:40.654Z,44.20
2017-12-15T15:31:08.637Z,43.20
2017-12-15T15:33:36.490Z,43.00
2017-12-15T15:36:04.467Z,40.40
2017-12-15T15:38:32.437Z,32.80
2017-12-15T15:41:00.292Z,43.90
2017-12-15T15:43:28.261Z,43.10
2017-12-15T15:45:56.434Z,42.00
2017-12-15T15:48:25.084Z,35.40
2017-12-15T15:50:53.207Z,34.70
2017-12-15T15:53:21.159Z,35.30
2017-12-15T15:55:49.026Z,43.90
2017-12-15T15:58:17.108Z,42.50
2017-12-15T16:00:46.202Z,42.10
2017-12-15T16:03:14.279Z,41.70
2017-12-15T16:05:42.234Z,41.20
2017-12-15T16:08:10.201Z,41.40
2017-12-15T16:10:38.170Z,41.30
2017-12-15T16:13:06.240Z,41.10
2017-12-15T16:15:34.218Z,41.00
2017-12-15T16:18:02.077Z,40.50
2017-12-15T16:20:30.261Z,40.90
2017-12-15T16:22:58.335Z,40.70
2017-12-15T16:25:26.297Z,40.80
2017-12-15T16:27:54.162Z,40.70
2017-12-15T16:30:22.021Z,40.70
2017-12-15T16:32:50.002Z,40.20
2017-12-15T16:35:17.958Z,40.40
2017-12-15T16:37:45.882Z,40.40
2017-12-15T16:40:13.904Z,38.40
2017-12-15T16:42:41.866Z,41.20
2017-12-15T16:45:09.842Z,33.40
2017-12-15T16:47:37.713Z,41.10
2017-12-15T16:50:07.426Z,34.80
2017-12-15T16:52:35.389Z,35.00
2017-12-15T16:55:03.452Z,38.20
2017-12-15T16:57:31.433Z,42.50
2017-12-15T17:00:00.320Z,41.50
2017-12-15T17:02:28.179Z,41.40
2017-12-15T17:04:56.975Z,38.40
2017-12-15T17:07:25.673Z,34.80
2017-12-15T17:09:53.734Z,35.90
2017-12-15T17:12:23.341Z,43.50
2017-12-15T17:14:52.019Z,44.40
2017-12-15T17:17:19.986Z,44.30
2017-12-15T17:19:49.194Z,42.20
2017-12-15T17:22:19.438Z,40.80
2017-12-15T17:24:51.253Z,41.20
2017-12-15T17:27:21.577Z,40.80
2017-12-15T17:29:51.702Z,40.50
2017-12-15T17:32:19.780Z,35.10
2017-12-15T17:34:48.051Z,33.60
2017-12-15T17:37:16.021Z,41.90
2017-12-15T17:39:43.999Z,40.90
2017-12-15T17:42:11.967Z,40.60
2017-12-15T17:44:40.755Z,35.80
2017-12-15T17:47:08.592Z,35.90
2017-12-15T17:49:36.509Z,41.80
2017-12-15T17:52:05.160Z,44.00
2017-12-15T17:54:33.094Z,44.00
2017-12-15T17:57:00.998Z,42.60
2017-12-15T17:59:28.890Z,42.50
2017-12-15T18:01:57.558Z,35.00
2017-12-15T18:04:25.366Z,34.80
2017-12-15T18:06:53.248Z,39.20
2017-12-15T18:09:21.111Z,43.10
2017-12-15T18:11:49.024Z,36.10
2017-12-15T18:14:16.914Z,48.60
2017-12-15T18:16:44.970Z,45.50
2017-12-15T18:19:13.642Z,45.90
2017-12-15T18:21:41.520Z,45.90
2017-12-15T18:24:10.022Z,41.50
2017-12-15T18:26:38.173Z,43.50
2017-12-15T18:29:06.950Z,33.90
2017-12-15T18:31:34.890Z,33.80
2017-12-15T18:34:02.887Z,44.60
2017-12-15T18:36:30.990Z,39.80
2017-12-15T18:38:59.858Z,44.00
2017-12-15T18:41:28.329Z,44.20
2017-12-15T18:43:56.298Z,42.10
2017-12-15T18:46:25.504Z,43.70
2017-12-15T18:48:54.296Z,39.80
2017-12-15T18:51:23.387Z,39.60
2017-12-15T18:53:52.278Z,39.50
2017-12-15T18:56:20.442Z,42.80
2017-12-15T18:58:48.865Z,46.70
2017-12-15T19:01:17.821Z,45.30
2017-12-15T19:03:45.741Z,45.30
2017-12-15T19:06:13.751Z,42.00
2017-12-15T19:08:41.619Z,37.90
2017-12-15T19:11:09.587Z,51.80
2017-12-15T19:13:38.691Z,45.40
2017-12-15T19:16:06.650Z,45.20
2017-12-15T19:18:34.737Z,39.20
2017-12-15T19:21:03.136Z,38.60
2017-12-15T19:23:31.023Z,40.10
2017-12-15T19:25:58.935Z,44.60
2017-12-15T19:28:26.904Z,48.10
2017-12-15T19:30:54.700Z,41.20
2017-12-15T19:33:23.561Z,36.60
2017-12-15T19:35:52.045Z,45.30
2017-12-15T19:38:22.065Z,39.50
2017-12-15T19:40:51.390Z,42.80
2017-12-15T19:43:22.281Z,41.10
2017-12-15T19:45:50.641Z,40.90
2017-12-15T19:48:19.264Z,44.30
2017-12-15T19:50:50.050Z,49.50
2017-12-15T19:53:19.196Z,49.50
2017-12-15T19:55:48.959Z,36.70
2017-12-15T19:58:18.913Z,41.50
2017-12-15T20:00:48.705Z,46.20
2017-12-15T20:03:17.282Z,46.30
2017-12-15T20:05:45.893Z,39.80
2017-12-15T20:08:15.322Z,41.90
2017-12-15T20:10:44.182Z,39.10
2017-12-15T20:13:13.077Z,38.80
2017-12-15T20:15:42.018Z,33.30
2017-12-15T20:18:11.685Z,41.60
2017-12-15T20:20:39.632Z,40.40
2017-12-15T20:23:07.507Z,33.50
2017-12-15T20:25:35.521Z,39.60
2017-12-15T20:28:04.994Z,40.70
2017-12-15T20:30:33.832Z,42.90
2017-12-15T20:33:01.683Z,43.20
2017-12-15T20:35:30.287Z,40.20
2017-12-15T20:37:58.171Z,40.10
2017-12-15T20:40:26.492Z,47.80
2017-12-15T20:42:55.130Z,49.20
2017-12-15T20:45:23.446Z,49.00
2017-12-15T20:47:51.372Z,37.20
2017-12-15T20:50:19.314Z,37.00
2017-12-15T20:52:47.196Z,40.40
2017-12-15T20:55:15.966Z,39.60
2017-12-15T20:57:44.294Z,46.40
2017-12-15T21:00:12.663Z,39.70
2017-12-15T21:05:14.715Z,44.80
2017-12-15T21:07:42.520Z,46.50
2017-12-15T21:10:10.345Z,44.90
2017-12-15T21:12:38.258Z,44.40
2017-12-15T21:15:06.103Z,43.00
2017-12-15T21:17:33.975Z,42.40
2017-12-15T21:20:01.906Z,41.20
2017-12-15T21:22:29.720Z,38.40
2017-12-15T21:24:57.475Z,41.90
2017-12-15T21:27:25.317Z,38.10
2017-12-15T21:29:53.099Z,40.10
2017-12-15T21:32:20.922Z,47.40
2017-12-15T21:34:48.716Z,38.10
2017-12-15T21:37:16.482Z,38.90
2017-12-15T21:39:44.253Z,46.40
2017-12-15T21:42:12.079Z,45.60
2017-12-15T21:44:39.881Z,45.30
2017-12-15T21:47:07.738Z,45.10
2017-12-15T21:49:35.613Z,44.60
2017-12-15T21:52:03.445Z,44.50
2017-12-15T21:54:31.213Z,44.60
2017-12-15T21:56:59.220Z,44.40
2017-12-15T21:59:27.139Z,44.10
2017-12-15T22:01:55.655Z,44.40
2017-12-15T22:04:23.514Z,44.40
2017-12-15T22:06:51.334Z,44.80
2017-12-15T22:09:19.117Z,44.30
2017-12-15T22:11:47.788Z,35.40
2017-12-15T22:14:15.575Z,35.80
2017-12-15T22:16:43.364Z,42.80
2017-12-15T22:19:11.165Z,36.90
2017-12-15T22:21:38.977Z,49.70
2017-12-15T22:24:06.783Z,47.60
2017-12-15T22:26:35.381Z,45.80
2017-12-15T22:29:03.221Z,45.80
2017-12-15T22:31:44.356Z,45.50
2017-12-15T22:34:12.209Z,45.50
2017-12-15T22:36:40.057Z,45.50
2017-12-15T22:39:08.627Z,45.80
2017-12-15T22:41:37.180Z,45.80
2017-12-15T22:44:05.015Z,45.70
2017-12-15T22:46:32.867Z,45.60
2017-12-15T22:49:00.653Z,45.50
2017-12-15T22:51:28.474Z,45.60
2017-12-15T22:53:57.071Z,45.50
2017-12-15T22:56:24.937Z,45.50
2017-12-15T22:58:52.730Z,45.60
2017-12-15T23:01:20.664Z,45.70
2017-12-15T23:03:48.559Z,45.90
2017-12-15T23:06:16.360Z,45.80
2017-12-15T23:08:44.257Z,46.10
2017-12-15T23:11:12.774Z,46.20
2017-12-15T23:13:40.624Z,46.10
2017-12-15T23:16:08.450Z,46.30
2017-12-15T23:18:36.254Z,46.40
2017-12-15T23:21:04.120Z,46.50
2017-12-15T23:23:31.909Z,46.50
2017-12-15T23:25:59.793Z,46.60
2017-12-15T23:28:27.697Z,46.60
2017-12-15T23:30:55.550Z,46.60
2017-12-15T23:33:23.360Z,46.60
2017-12-15T23:35:51.176Z,46.70
2017-12-15T23:38:19.102Z,46.70
2017-12-15T23:40:46.906Z,46.90
2017-12-15T23:43:14.755Z,46.90
2017-12-15T23:45:42.543Z,47.10
2017-12-15T23:48:10.372Z,47.10
2017-12-15T23:50:38.237Z,47.30
2017-12-15T23:53:06.059Z,47.40
2017-12-15T23:55:45.477Z,47.40
2017-12-15T23:58:13.320Z,47.40
